sensor_id;sensor_type;location;lat;lon;timestamp;noise_LAeq;noise_LA_min;noise_LA_max;noise_LA01;noise_LA95
76217;Laerm;65010;50.190;18.930;2023-04-24T00:00:10;34.95;33.77;36.52;;
76217;Laerm;65010;50.190;18.930;2023-04-24T00:03:18;40.77;33.52;60.43;;
76217;Laerm;65010;50.190;18.930;2023-04-24T00:06:25;34.64;33.35;37.54;;
76217;Laerm;65010;50.190;18.930;2023-04-24T00:09:39;34.66;33.58;51.13;;
76217;Laerm;65010;50.190;18.930;2023-04-24T00:12:45;34.64;33.67;37.70;;
76217;Laerm;65010;50.190;18.930;2023-04-24T00:15:51;34.85;33.57;49.80;;
76217;Laerm;65010;50.190;18.930;2023-04-24T00:18:57;34.74;33.46;39.88;;
76217;Laerm;65010;50.190;18.930;2023-04-24T00:22:04;34.65;33.50;39.07;;
76217;Laerm;65010;50.190;18.930;2023-04-24T00:25:12;34.67;33.56;40.57;;
76217;Laerm;65010;50.190;18.930;2023-04-24T00:28:19;34.75;33.52;43.30;;
76217;Laerm;65010;50.190;18.930;2023-04-24T00:31:24;34.63;33.51;38.53;;
76217;Laerm;65010;50.190;18.930;2023-04-24T00:34:31;34.60;33.62;35.73;;
76217;Laerm;65010;50.190;18.930;2023-04-24T00:37:36;34.60;33.33;35.66;;
76217;Laerm;65010;50.190;18.930;2023-04-24T00:40:46;34.90;33.67;36.82;;
76217;Laerm;65010;50.190;18.930;2023-04-24T00:43:52;35.04;33.62;36.81;;
76217;Laerm;65010;50.190;18.930;2023-04-24T00:46:59;40.32;33.49;61.22;;
76217;Laerm;65010;50.190;18.930;2023-04-24T00:50:08;34.65;33.41;38.76;;
76217;Laerm;65010;50.190;18.930;2023-04-24T00:53:14;34.60;33.50;35.66;;
76217;Laerm;65010;50.190;18.930;2023-04-24T00:56:23;34.37;33.19;38.04;;
76217;Laerm;65010;50.190;18.930;2023-04-24T00:59:31;34.34;33.25;35.47;;
76217;Laerm;65010;50.190;18.930;2023-04-24T01:02:40;34.90;33.22;41.70;;
76217;Laerm;65010;50.190;18.930;2023-04-24T01:05:50;34.97;33.34;36.51;;
76217;Laerm;65010;50.190;18.930;2023-04-24T01:08:56;34.66;33.35;37.54;;
76217;Laerm;65010;50.190;18.930;2023-04-24T01:12:07;34.84;33.71;36.04;;
76217;Laerm;65010;50.190;18.930;2023-04-24T01:15:14;34.82;33.62;35.84;;
76217;Laerm;65010;50.190;18.930;2023-04-24T01:18:20;34.90;33.61;36.19;;
76217;Laerm;65010;50.190;18.930;2023-04-24T01:21:30;34.94;33.30;37.70;;
76217;Laerm;65010;50.190;18.930;2023-04-24T01:24:43;34.31;33.15;36.11;;
76217;Laerm;65010;50.190;18.930;2023-04-24T01:27:49;34.74;33.16;38.81;;
76217;Laerm;65010;50.190;18.930;2023-04-24T01:30:56;35.14;33.59;37.21;;
76217;Laerm;65010;50.190;18.930;2023-04-24T01:34:03;34.45;33.09;35.67;;
76217;Laerm;65010;50.190;18.930;2023-04-24T01:37:09;34.35;33.28;35.31;;
76217;Laerm;65010;50.190;18.930;2023-04-24T01:40:18;34.41;33.29;38.24;;
76217;Laerm;65010;50.190;18.930;2023-04-24T01:43:25;34.60;33.42;37.18;;
76217;Laerm;65010;50.190;18.930;2023-04-24T01:46:33;34.63;33.58;35.88;;
76217;Laerm;65010;50.190;18.930;2023-04-24T01:49:40;34.64;33.48;39.11;;
76217;Laerm;65010;50.190;18.930;2023-04-24T01:52:48;34.73;33.70;39.70;;
76217;Laerm;65010;50.190;18.930;2023-04-24T01:55:57;34.87;33.64;56.78;;
76217;Laerm;65010;50.190;18.930;2023-04-24T01:59:04;35.78;33.66;41.14;;
76217;Laerm;65010;50.190;18.930;2023-04-24T02:02:10;35.02;33.79;44.28;;
76217;Laerm;65010;50.190;18.930;2023-04-24T02:05:17;34.95;33.62;45.76;;
76217;Laerm;65010;50.190;18.930;2023-04-24T02:08:22;35.04;33.65;41.45;;
76217;Laerm;65010;50.190;18.930;2023-04-24T02:11:31;35.17;33.66;39.97;;
76217;Laerm;65010;50.190;18.930;2023-04-24T02:14:37;35.70;34.03;41.20;;
76217;Laerm;65010;50.190;18.930;2023-04-24T02:17:45;35.44;33.89;45.17;;
76217;Laerm;65010;50.190;18.930;2023-04-24T02:20:51;35.75;33.87;42.47;;
76217;Laerm;65010;50.190;18.930;2023-04-24T02:23:58;35.67;33.92;42.82;;
76217;Laerm;65010;50.190;18.930;2023-04-24T02:27:06;35.62;33.86;44.39;;
76217;Laerm;65010;50.190;18.930;2023-04-24T02:30:14;38.47;33.71;50.34;;
76217;Laerm;65010;50.190;18.930;2023-04-24T02:33:20;39.49;33.70;50.00;;
76217;Laerm;65010;50.190;18.930;2023-04-24T02:36:26;40.24;33.52;51.64;;
76217;Laerm;65010;50.190;18.930;2023-04-24T02:39:32;40.45;33.70;53.43;;
76217;Laerm;65010;50.190;18.930;2023-04-24T02:42:41;40.66;33.88;51.68;;
76217;Laerm;65010;50.190;18.930;2023-04-24T02:45:47;40.41;33.81;52.36;;
76217;Laerm;65010;50.190;18.930;2023-04-24T02:48:54;39.92;33.83;50.18;;
76217;Laerm;65010;50.190;18.930;2023-04-24T02:52:00;39.33;33.98;48.23;;
76217;Laerm;65010;50.190;18.930;2023-04-24T02:55:07;44.39;33.75;64.65;;
76217;Laerm;65010;50.190;18.930;2023-04-24T02:58:15;41.09;33.86;54.61;;
76217;Laerm;65010;50.190;18.930;2023-04-24T03:01:23;43.74;34.06;62.90;;
76217;Laerm;65010;50.190;18.930;2023-04-24T03:04:29;40.31;33.84;56.03;;
76217;Laerm;65010;50.190;18.930;2023-04-24T03:07:36;39.34;33.79;52.98;;
76217;Laerm;65010;50.190;18.930;2023-04-24T03:10:42;40.11;33.57;55.58;;
76217;Laerm;65010;50.190;18.930;2023-04-24T03:13:53;40.13;33.78;58.77;;
76217;Laerm;65010;50.190;18.930;2023-04-24T03:16:59;35.62;33.48;45.80;;
76217;Laerm;65010;50.190;18.930;2023-04-24T03:20:08;36.14;33.92;47.36;;
76217;Laerm;65010;50.190;18.930;2023-04-24T03:23:14;36.77;34.04;44.93;;
76217;Laerm;65010;50.190;18.930;2023-04-24T03:26:21;40.47;34.05;58.21;;
76217;Laerm;65010;50.190;18.930;2023-04-24T03:29:53;40.33;33.91;57.33;;
76217;Laerm;65010;50.190;18.930;2023-04-24T03:33:09;43.37;33.94;65.10;;
76217;Laerm;65010;50.190;18.930;2023-04-24T03:36:23;45.19;34.21;64.21;;
76217;Laerm;65010;50.190;18.930;2023-04-24T03:39:31;45.13;33.96;62.55;;
76217;Laerm;65010;50.190;18.930;2023-04-24T03:42:37;45.91;33.95;65.26;;
76217;Laerm;65010;50.190;18.930;2023-04-24T03:45:46;44.37;34.18;63.17;;
76217;Laerm;65010;50.190;18.930;2023-04-24T03:48:53;42.06;33.99;61.10;;
76217;Laerm;65010;50.190;18.930;2023-04-24T03:52:04;44.75;34.20;65.11;;
76217;Laerm;65010;50.190;18.930;2023-04-24T03:55:10;37.00;33.78;59.62;;
76217;Laerm;65010;50.190;18.930;2023-04-24T03:58:21;46.70;34.28;63.26;;
76217;Laerm;65010;50.190;18.930;2023-04-24T04:01:31;36.17;34.08;47.60;;
76217;Laerm;65010;50.190;18.930;2023-04-24T04:04:46;42.75;34.94;63.14;;
76217;Laerm;65010;50.190;18.930;2023-04-24T04:07:52;44.44;35.85;62.73;;
76217;Laerm;65010;50.190;18.930;2023-04-24T04:10:59;44.10;36.49;62.36;;
76217;Laerm;65010;50.190;18.930;2023-04-24T04:14:07;44.29;36.13;65.13;;
76217;Laerm;65010;50.190;18.930;2023-04-24T04:17:19;44.35;36.15;62.77;;
76217;Laerm;65010;50.190;18.930;2023-04-24T04:20:25;46.52;36.45;63.58;;
76217;Laerm;65010;50.190;18.930;2023-04-24T04:23:32;41.67;36.07;58.93;;
76217;Laerm;65010;50.190;18.930;2023-04-24T04:26:43;45.90;36.09;67.25;;
76217;Laerm;65010;50.190;18.930;2023-04-24T04:30:07;42.73;35.84;62.69;;
76217;Laerm;65010;50.190;18.930;2023-04-24T04:33:34;52.34;36.25;75.21;;
76217;Laerm;65010;50.190;18.930;2023-04-24T04:36:44;48.15;35.99;66.45;;
76217;Laerm;65010;50.190;18.930;2023-04-24T04:40:05;46.43;36.32;65.79;;
76217;Laerm;65010;50.190;18.930;2023-04-24T04:43:17;47.01;36.20;63.37;;
76217;Laerm;65010;50.190;18.930;2023-04-24T04:46:27;48.44;36.36;65.50;;
76217;Laerm;65010;50.190;18.930;2023-04-24T04:49:46;50.60;36.42;65.71;;
76217;Laerm;65010;50.190;18.930;2023-04-24T04:52:54;46.73;36.35;62.02;;
76217;Laerm;65010;50.190;18.930;2023-04-24T04:56:07;47.56;36.58;64.32;;
76217;Laerm;65010;50.190;18.930;2023-04-24T04:59:18;47.75;34.56;63.31;;
76217;Laerm;65010;50.190;18.930;2023-04-24T05:02:28;49.39;34.69;65.05;;
76217;Laerm;65010;50.190;18.930;2023-04-24T05:05:39;50.07;35.90;65.24;;
76217;Laerm;65010;50.190;18.930;2023-04-24T05:08:48;50.68;36.01;66.56;;
76217;Laerm;65010;50.190;18.930;2023-04-24T05:12:11;48.03;36.11;63.10;;
76217;Laerm;65010;50.190;18.930;2023-04-24T05:15:25;45.06;36.23;60.01;;
76217;Laerm;65010;50.190;18.930;2023-04-24T05:18:32;43.14;36.23;61.38;;
76217;Laerm;65010;50.190;18.930;2023-04-24T05:21:43;46.75;36.10;64.73;;
76217;Laerm;65010;50.190;18.930;2023-04-24T05:24:49;47.18;34.43;64.33;;
76217;Laerm;65010;50.190;18.930;2023-04-24T05:28:15;46.83;34.04;62.63;;
76217;Laerm;65010;50.190;18.930;2023-04-24T05:31:28;41.35;34.52;61.19;;
76217;Laerm;65010;50.190;18.930;2023-04-24T05:34:35;48.87;34.63;65.10;;
76217;Laerm;65010;50.190;18.930;2023-04-24T05:37:43;51.82;34.50;67.05;;
76217;Laerm;65010;50.190;18.930;2023-04-24T05:40:51;50.09;34.61;67.00;;
76217;Laerm;65010;50.190;18.930;2023-04-24T05:43:57;47.98;34.51;65.68;;
76217;Laerm;65010;50.190;18.930;2023-04-24T05:47:03;47.51;34.43;63.37;;
76217;Laerm;65010;50.190;18.930;2023-04-24T05:50:10;48.45;34.44;61.21;;
76217;Laerm;65010;50.190;18.930;2023-04-24T05:53:19;49.53;34.56;65.27;;
76217;Laerm;65010;50.190;18.930;2023-04-24T05:56:25;52.72;34.95;70.28;;
76217;Laerm;65010;50.190;18.930;2023-04-24T05:59:32;48.41;34.54;68.22;;
76217;Laerm;65010;50.190;18.930;2023-04-24T06:02:38;50.31;35.24;64.81;;
76217;Laerm;65010;50.190;18.930;2023-04-24T06:05:49;49.30;34.44;64.84;;
76217;Laerm;65010;50.190;18.930;2023-04-24T06:08:59;48.04;34.60;66.65;;
76217;Laerm;65010;50.190;18.930;2023-04-24T06:12:07;49.51;34.31;63.42;;
76217;Laerm;65010;50.190;18.930;2023-04-24T06:15:28;45.39;33.81;61.63;;
76217;Laerm;65010;50.190;18.930;2023-04-24T06:18:41;47.66;34.30;66.88;;
76217;Laerm;65010;50.190;18.930;2023-04-24T06:21:49;45.99;34.04;63.84;;
76217;Laerm;65010;50.190;18.930;2023-04-24T06:25:00;50.09;34.55;67.31;;
76217;Laerm;65010;50.190;18.930;2023-04-24T06:28:05;47.49;34.50;63.64;;
76217;Laerm;65010;50.190;18.930;2023-04-24T06:31:12;47.86;33.94;70.41;;
76217;Laerm;65010;50.190;18.930;2023-04-24T06:34:18;48.08;33.97;62.06;;
76217;Laerm;65010;50.190;18.930;2023-04-24T06:37:25;48.60;33.82;64.83;;
76217;Laerm;65010;50.190;18.930;2023-04-24T06:40:34;48.75;33.83;69.38;;
76217;Laerm;65010;50.190;18.930;2023-04-24T06:43:40;44.59;33.56;63.80;;
76217;Laerm;65010;50.190;18.930;2023-04-24T06:46:46;45.82;33.61;64.23;;
76217;Laerm;65010;50.190;18.930;2023-04-24T06:49:53;47.34;33.68;65.76;;
76217;Laerm;65010;50.190;18.930;2023-04-24T06:52:58;47.93;33.70;65.72;;
76217;Laerm;65010;50.190;18.930;2023-04-24T06:56:08;47.64;33.48;65.25;;
76217;Laerm;65010;50.190;18.930;2023-04-24T06:59:13;45.10;33.63;62.40;;
76217;Laerm;65010;50.190;18.930;2023-04-24T07:02:20;43.27;33.67;62.79;;
76217;Laerm;65010;50.190;18.930;2023-04-24T07:05:26;41.71;33.75;58.03;;
76217;Laerm;65010;50.190;18.930;2023-04-24T07:08:33;49.15;33.90;65.68;;
76217;Laerm;65010;50.190;18.930;2023-04-24T07:11:42;44.00;34.03;59.36;;
76217;Laerm;65010;50.190;18.930;2023-04-24T07:14:48;46.70;33.73;64.26;;
76217;Laerm;65010;50.190;18.930;2023-04-24T07:17:54;45.21;34.26;60.98;;
76217;Laerm;65010;50.190;18.930;2023-04-24T07:21:01;45.50;34.27;63.91;;
76217;Laerm;65010;50.190;18.930;2023-04-24T07:24:06;46.60;34.08;62.18;;
76217;Laerm;65010;50.190;18.930;2023-04-24T07:27:17;46.54;33.76;61.48;;
76217;Laerm;65010;50.190;18.930;2023-04-24T07:30:23;45.34;33.79;62.35;;
76217;Laerm;65010;50.190;18.930;2023-04-24T07:33:32;46.46;33.61;62.14;;
76217;Laerm;65010;50.190;18.930;2023-04-24T07:36:38;43.95;33.49;61.04;;
76217;Laerm;65010;50.190;18.930;2023-04-24T07:39:45;46.72;34.19;61.52;;
76217;Laerm;65010;50.190;18.930;2023-04-24T07:42:53;46.87;34.55;62.22;;
76217;Laerm;65010;50.190;18.930;2023-04-24T07:46:00;46.68;34.12;65.54;;
76217;Laerm;65010;50.190;18.930;2023-04-24T07:49:09;41.54;33.83;61.27;;
76217;Laerm;65010;50.190;18.930;2023-04-24T07:52:17;49.14;34.21;64.50;;
76217;Laerm;65010;50.190;18.930;2023-04-24T07:55:23;35.58;33.88;40.43;;
76217;Laerm;65010;50.190;18.930;2023-04-24T07:58:33;43.89;34.37;60.58;;
76217;Laerm;65010;50.190;18.930;2023-04-24T08:01:39;44.90;34.20;67.91;;
76217;Laerm;65010;50.190;18.930;2023-04-24T08:04:45;48.41;33.86;69.65;;
76217;Laerm;65010;50.190;18.930;2023-04-24T08:07:54;43.17;34.08;61.79;;
76217;Laerm;65010;50.190;18.930;2023-04-24T08:11:00;42.22;34.24;62.66;;
76217;Laerm;65010;50.190;18.930;2023-04-24T08:14:09;43.90;34.03;69.70;;
76217;Laerm;65010;50.190;18.930;2023-04-24T08:17:17;57.43;34.03;78.85;;
76217;Laerm;65010;50.190;18.930;2023-04-24T08:20:23;53.66;34.36;74.93;;
76217;Laerm;65010;50.190;18.930;2023-04-24T08:23:29;46.96;34.70;61.94;;
76217;Laerm;65010;50.190;18.930;2023-04-24T08:26:35;44.28;34.05;61.99;;
76217;Laerm;65010;50.190;18.930;2023-04-24T08:29:44;44.85;33.84;64.35;;
76217;Laerm;65010;50.190;18.930;2023-04-24T08:32:50;43.96;33.79;60.51;;
76217;Laerm;65010;50.190;18.930;2023-04-24T08:35:56;44.03;33.95;61.16;;
76217;Laerm;65010;50.190;18.930;2023-04-24T08:39:03;44.99;33.74;63.39;;
76217;Laerm;65010;50.190;18.930;2023-04-24T08:42:12;39.61;33.58;57.67;;
76217;Laerm;65010;50.190;18.930;2023-04-24T08:45:22;44.54;33.66;63.47;;
76217;Laerm;65010;50.190;18.930;2023-04-24T08:48:31;42.35;33.98;60.27;;
76217;Laerm;65010;50.190;18.930;2023-04-24T08:51:38;44.87;33.65;61.02;;
76217;Laerm;65010;50.190;18.930;2023-04-24T08:54:46;40.59;34.14;57.93;;
76217;Laerm;65010;50.190;18.930;2023-04-24T08:57:53;46.46;34.16;62.19;;
76217;Laerm;65010;50.190;18.930;2023-04-24T09:01:02;44.89;34.25;61.19;;
76217;Laerm;65010;50.190;18.930;2023-04-24T09:04:09;46.10;34.36;63.63;;
76217;Laerm;65010;50.190;18.930;2023-04-24T09:07:20;40.03;34.13;64.52;;
76217;Laerm;65010;50.190;18.930;2023-04-24T09:10:27;44.75;34.32;59.69;;
76217;Laerm;65010;50.190;18.930;2023-04-24T09:13:34;41.34;34.16;57.72;;
76217;Laerm;65010;50.190;18.930;2023-04-24T09:16:43;49.00;34.09;78.27;;
76217;Laerm;65010;50.190;18.930;2023-04-24T09:19:50;47.13;33.93;65.48;;
76217;Laerm;65010;50.190;18.930;2023-04-24T09:22:57;45.09;34.03;62.86;;
76217;Laerm;65010;50.190;18.930;2023-04-24T09:26:04;46.34;34.02;62.01;;
76217;Laerm;65010;50.190;18.930;2023-04-24T09:29:15;47.98;34.20;63.75;;
76217;Laerm;65010;50.190;18.930;2023-04-24T09:32:26;46.06;34.01;63.82;;
76217;Laerm;65010;50.190;18.930;2023-04-24T09:35:33;45.34;34.29;62.71;;
76217;Laerm;65010;50.190;18.930;2023-04-24T09:38:39;42.30;34.10;60.15;;
76217;Laerm;65010;50.190;18.930;2023-04-24T09:41:48;47.44;34.20;64.17;;
76217;Laerm;65010;50.190;18.930;2023-04-24T09:44:55;45.45;34.09;62.93;;
76217;Laerm;65010;50.190;18.930;2023-04-24T09:48:18;43.73;34.21;66.35;;
76217;Laerm;65010;50.190;18.930;2023-04-24T09:51:35;43.45;33.73;62.84;;
76217;Laerm;65010;50.190;18.930;2023-04-24T09:54:52;41.68;34.23;59.21;;
76217;Laerm;65010;50.190;18.930;2023-04-24T09:58:01;44.02;34.07;65.63;;
76217;Laerm;65010;50.190;18.930;2023-04-24T10:01:07;44.73;34.14;65.31;;
76217;Laerm;65010;50.190;18.930;2023-04-24T10:04:23;41.61;33.89;61.99;;
76217;Laerm;65010;50.190;18.930;2023-04-24T10:07:29;45.85;33.94;64.03;;
76217;Laerm;65010;50.190;18.930;2023-04-24T10:10:44;44.67;34.01;62.12;;
76217;Laerm;65010;50.190;18.930;2023-04-24T10:13:51;42.63;34.20;57.33;;
76217;Laerm;65010;50.190;18.930;2023-04-24T10:16:59;45.15;34.20;61.90;;
76217;Laerm;65010;50.190;18.930;2023-04-24T10:20:09;45.83;34.53;62.76;;
76217;Laerm;65010;50.190;18.930;2023-04-24T10:23:16;44.98;34.77;62.38;;
76217;Laerm;65010;50.190;18.930;2023-04-24T10:26:23;44.26;34.90;61.70;;
76217;Laerm;65010;50.190;18.930;2023-04-24T10:29:35;36.32;34.19;45.06;;
76217;Laerm;65010;50.190;18.930;2023-04-24T10:32:41;47.44;35.12;66.94;;
76217;Laerm;65010;50.190;18.930;2023-04-24T10:35:52;40.44;34.38;58.60;;
76217;Laerm;65010;50.190;18.930;2023-04-24T10:39:02;46.73;34.60;63.68;;
76217;Laerm;65010;50.190;18.930;2023-04-24T10:42:16;48.36;34.99;63.74;;
76217;Laerm;65010;50.190;18.930;2023-04-24T10:45:24;46.84;34.72;66.95;;
76217;Laerm;65010;50.190;18.930;2023-04-24T10:48:34;45.24;34.89;64.12;;
76217;Laerm;65010;50.190;18.930;2023-04-24T10:51:52;46.90;35.01;65.34;;
76217;Laerm;65010;50.190;18.930;2023-04-24T10:55:02;42.58;34.60;60.69;;
76217;Laerm;65010;50.190;18.930;2023-04-24T10:58:08;47.93;34.99;66.58;;
76217;Laerm;65010;50.190;18.930;2023-04-24T11:01:25;50.94;35.56;69.47;;
76217;Laerm;65010;50.190;18.930;2023-04-24T11:04:33;46.25;35.81;61.68;;
76217;Laerm;65010;50.190;18.930;2023-04-24T11:08:14;44.64;36.16;61.70;;
76217;Laerm;65010;50.190;18.930;2023-04-24T11:11:20;44.17;35.82;62.25;;
76217;Laerm;65010;50.190;18.930;2023-04-24T11:14:28;45.80;35.83;61.68;;
76217;Laerm;65010;50.190;18.930;2023-04-24T11:17:36;46.12;36.28;63.44;;
76217;Laerm;65010;50.190;18.930;2023-04-24T11:20:45;48.76;34.02;64.22;;
76217;Laerm;65010;50.190;18.930;2023-04-24T11:23:54;42.56;33.76;59.57;;
76217;Laerm;65010;50.190;18.930;2023-04-24T11:27:12;49.40;33.85;64.25;;
76217;Laerm;65010;50.190;18.930;2023-04-24T11:30:20;48.54;34.67;62.29;;
76217;Laerm;65010;50.190;18.930;2023-04-24T11:33:27;43.24;34.03;57.85;;
76217;Laerm;65010;50.190;18.930;2023-04-24T11:36:35;49.33;34.31;68.16;;
76217;Laerm;65010;50.190;18.930;2023-04-24T11:39:45;45.72;34.16;64.81;;
76217;Laerm;65010;50.190;18.930;2023-04-24T11:42:53;47.86;34.50;69.22;;
76217;Laerm;65010;50.190;18.930;2023-04-24T11:46:03;45.70;34.33;63.29;;
76217;Laerm;65010;50.190;18.930;2023-04-24T11:49:08;43.94;34.39;58.59;;
76217;Laerm;65010;50.190;18.930;2023-04-24T11:52:16;43.60;34.37;64.72;;
76217;Laerm;65010;50.190;18.930;2023-04-24T11:55:29;43.43;34.20;65.00;;
76217;Laerm;65010;50.190;18.930;2023-04-24T11:58:38;48.26;34.26;62.53;;
76217;Laerm;65010;50.190;18.930;2023-04-24T12:01:44;43.40;34.30;60.80;;
76217;Laerm;65010;50.190;18.930;2023-04-24T12:04:52;48.18;34.75;63.05;;
76217;Laerm;65010;50.190;18.930;2023-04-24T12:07:59;45.23;34.80;60.55;;
76217;Laerm;65010;50.190;18.930;2023-04-24T12:11:08;46.71;34.61;72.61;;
76217;Laerm;65010;50.190;18.930;2023-04-24T12:14:14;43.28;35.01;61.19;;
76217;Laerm;65010;50.190;18.930;2023-04-24T12:17:26;46.28;34.70;60.70;;
76217;Laerm;65010;50.190;18.930;2023-04-24T12:20:35;47.39;34.83;65.20;;
76217;Laerm;65010;50.190;18.930;2023-04-24T12:23:43;47.43;34.96;62.47;;
76217;Laerm;65010;50.190;18.930;2023-04-24T12:26:51;47.50;35.16;63.70;;
76217;Laerm;65010;50.190;18.930;2023-04-24T12:29:59;47.11;34.74;64.90;;
76217;Laerm;65010;50.190;18.930;2023-04-24T12:33:05;46.35;35.09;60.28;;
76217;Laerm;65010;50.190;18.930;2023-04-24T12:36:12;49.07;34.90;65.77;;
76217;Laerm;65010;50.190;18.930;2023-04-24T12:39:19;48.11;34.51;63.70;;
76217;Laerm;65010;50.190;18.930;2023-04-24T12:42:31;57.10;38.32;80.88;;
76217;Laerm;65010;50.190;18.930;2023-04-24T12:45:39;55.68;35.16;69.89;;
76217;Laerm;65010;50.190;18.930;2023-04-24T12:48:46;58.81;34.84;70.26;;
76217;Laerm;65010;50.190;18.930;2023-04-24T12:51:51;47.78;35.40;63.83;;
76217;Laerm;65010;50.190;18.930;2023-04-24T12:55:00;46.93;35.25;62.82;;
76217;Laerm;65010;50.190;18.930;2023-04-24T12:58:10;48.26;35.09;62.56;;
76217;Laerm;65010;50.190;18.930;2023-04-24T13:01:17;47.38;35.23;63.75;;
76217;Laerm;65010;50.190;18.930;2023-04-24T13:04:25;48.30;34.79;62.05;;
76217;Laerm;65010;50.190;18.930;2023-04-24T13:07:32;47.55;34.88;64.47;;
76217;Laerm;65010;50.190;18.930;2023-04-24T13:10:38;48.67;35.00;64.16;;
76217;Laerm;65010;50.190;18.930;2023-04-24T13:13:48;46.27;34.45;60.51;;
76217;Laerm;65010;50.190;18.930;2023-04-24T13:16:56;46.58;34.75;64.49;;
76217;Laerm;65010;50.190;18.930;2023-04-24T13:20:05;54.07;34.88;78.24;;
76217;Laerm;65010;50.190;18.930;2023-04-24T13:23:11;49.60;34.77;62.07;;
76217;Laerm;65010;50.190;18.930;2023-04-24T13:26:18;47.57;35.21;62.66;;
76217;Laerm;65010;50.190;18.930;2023-04-24T13:29:27;49.84;34.45;65.59;;
76217;Laerm;65010;50.190;18.930;2023-04-24T13:32:33;48.15;34.60;63.56;;
76217;Laerm;65010;50.190;18.930;2023-04-24T13:35:39;49.26;34.52;64.23;;
76217;Laerm;65010;50.190;18.930;2023-04-24T13:38:45;48.19;34.52;61.27;;
76217;Laerm;65010;50.190;18.930;2023-04-24T13:41:51;49.56;34.44;63.97;;
76217;Laerm;65010;50.190;18.930;2023-04-24T13:45:01;47.71;34.76;63.00;;
76217;Laerm;65010;50.190;18.930;2023-04-24T13:48:26;49.05;34.68;66.29;;
76217;Laerm;65010;50.190;18.930;2023-04-24T13:51:33;49.86;34.79;63.38;;
76217;Laerm;65010;50.190;18.930;2023-04-24T13:54:38;47.23;34.81;64.02;;
76217;Laerm;65010;50.190;18.930;2023-04-24T13:57:47;47.35;35.04;64.31;;
76217;Laerm;65010;50.190;18.930;2023-04-24T14:00:57;46.50;35.00;62.01;;
76217;Laerm;65010;50.190;18.930;2023-04-24T14:04:03;50.28;35.05;64.42;;
76217;Laerm;65010;50.190;18.930;2023-04-24T14:07:09;46.12;34.96;62.90;;
76217;Laerm;65010;50.190;18.930;2023-04-24T14:10:17;48.62;34.15;64.80;;
76217;Laerm;65010;50.190;18.930;2023-04-24T14:13:23;49.44;34.45;66.16;;
76217;Laerm;65010;50.190;18.930;2023-04-24T14:16:34;48.96;34.79;62.61;;
76217;Laerm;65010;50.190;18.930;2023-04-24T14:19:40;47.91;34.61;62.53;;
76217;Laerm;65010;50.190;18.930;2023-04-24T14:22:46;47.25;34.98;60.39;;
76217;Laerm;65010;50.190;18.930;2023-04-24T14:25:52;48.76;35.10;68.04;;
76217;Laerm;65010;50.190;18.930;2023-04-24T14:28:58;47.74;34.81;63.03;;
76217;Laerm;65010;50.190;18.930;2023-04-24T14:32:19;47.24;34.46;63.26;;
76217;Laerm;65010;50.190;18.930;2023-04-24T14:35:25;47.65;34.08;63.21;;
76217;Laerm;65010;50.190;18.930;2023-04-24T14:38:34;44.10;34.32;62.49;;
76217;Laerm;65010;50.190;18.930;2023-04-24T14:41:41;45.67;33.91;64.23;;
76217;Laerm;65010;50.190;18.930;2023-04-24T14:44:46;48.43;34.13;65.13;;
76217;Laerm;65010;50.190;18.930;2023-04-24T14:47:57;47.82;34.23;64.90;;
76217;Laerm;65010;50.190;18.930;2023-04-24T14:51:03;48.34;34.68;62.84;;
76217;Laerm;65010;50.190;18.930;2023-04-24T14:54:10;48.98;34.11;64.97;;
76217;Laerm;65010;50.190;18.930;2023-04-24T14:57:15;45.27;34.18;60.52;;
76217;Laerm;65010;50.190;18.930;2023-04-24T15:00:22;46.52;34.19;61.12;;
76217;Laerm;65010;50.190;18.930;2023-04-24T15:03:31;48.50;34.19;65.73;;
76217;Laerm;65010;50.190;18.930;2023-04-24T15:06:38;47.69;34.30;62.43;;
76217;Laerm;65010;50.190;18.930;2023-04-24T15:09:44;45.84;33.80;62.56;;
76217;Laerm;65010;50.190;18.930;2023-04-24T15:12:51;44.09;34.01;59.70;;
76217;Laerm;65010;50.190;18.930;2023-04-24T15:15:56;49.70;34.24;69.93;;
76217;Laerm;65010;50.190;18.930;2023-04-24T15:19:06;47.62;34.51;63.95;;
76217;Laerm;65010;50.190;18.930;2023-04-24T15:22:12;48.25;35.06;63.68;;
76217;Laerm;65010;50.190;18.930;2023-04-24T15:25:19;48.04;34.52;65.94;;
76217;Laerm;65010;50.190;18.930;2023-04-24T15:28:25;46.43;34.31;63.27;;
76217;Laerm;65010;50.190;18.930;2023-04-24T15:31:32;44.47;34.60;61.13;;
76217;Laerm;65010;50.190;18.930;2023-04-24T15:34:40;50.42;34.84;70.39;;
76217;Laerm;65010;50.190;18.930;2023-04-24T15:37:48;48.03;34.21;66.15;;
76217;Laerm;65010;50.190;18.930;2023-04-24T15:40:53;46.35;33.92;62.26;;
76217;Laerm;65010;50.190;18.930;2023-04-24T15:44:00;50.13;33.81;67.00;;
76217;Laerm;65010;50.190;18.930;2023-04-24T15:47:06;46.42;33.86;61.87;;
76217;Laerm;65010;50.190;18.930;2023-04-24T15:50:15;45.45;33.88;63.50;;
76217;Laerm;65010;50.190;18.930;2023-04-24T15:53:23;47.56;34.06;63.63;;
76217;Laerm;65010;50.190;18.930;2023-04-24T15:56:30;49.87;33.79;70.03;;
76217;Laerm;65010;50.190;18.930;2023-04-24T15:59:38;49.20;34.00;66.56;;
76217;Laerm;65010;50.190;18.930;2023-04-24T16:02:45;48.38;34.22;63.98;;
76217;Laerm;65010;50.190;18.930;2023-04-24T16:05:54;48.60;33.92;62.91;;
76217;Laerm;65010;50.190;18.930;2023-04-24T16:09:01;46.64;34.12;64.12;;
76217;Laerm;65010;50.190;18.930;2023-04-24T16:12:08;46.82;34.28;65.01;;
76217;Laerm;65010;50.190;18.930;2023-04-24T16:15:14;43.40;33.81;60.77;;
76217;Laerm;65010;50.190;18.930;2023-04-24T16:18:20;46.87;34.15;60.78;;
76217;Laerm;65010;50.190;18.930;2023-04-24T16:21:29;42.78;34.41;56.79;;
76217;Laerm;65010;50.190;18.930;2023-04-24T16:24:35;46.22;34.47;64.19;;
76217;Laerm;65010;50.190;18.930;2023-04-24T16:27:42;46.86;34.37;63.76;;
76217;Laerm;65010;50.190;18.930;2023-04-24T16:30:50;47.40;34.50;64.65;;
76217;Laerm;65010;50.190;18.930;2023-04-24T16:33:56;46.59;34.63;64.13;;
76217;Laerm;65010;50.190;18.930;2023-04-24T16:37:05;43.35;34.24;58.46;;
76217;Laerm;65010;50.190;18.930;2023-04-24T16:40:11;44.22;34.43;63.85;;
76217;Laerm;65010;50.190;18.930;2023-04-24T16:43:17;46.29;34.70;60.84;;
76217;Laerm;65010;50.190;18.930;2023-04-24T16:46:25;39.23;34.21;55.36;;
76217;Laerm;65010;50.190;18.930;2023-04-24T16:49:30;48.06;34.30;64.41;;
76217;Laerm;65010;50.190;18.930;2023-04-24T16:52:40;55.55;34.32;79.77;;
76217;Laerm;65010;50.190;18.930;2023-04-24T16:55:45;48.77;33.91;66.48;;
76217;Laerm;65010;50.190;18.930;2023-04-24T16:58:53;49.36;34.12;61.28;;
76217;Laerm;65010;50.190;18.930;2023-04-24T17:01:59;46.92;34.29;60.58;;
76217;Laerm;65010;50.190;18.930;2023-04-24T17:05:09;45.46;34.12;63.90;;
76217;Laerm;65010;50.190;18.930;2023-04-24T17:08:17;48.51;34.18;63.43;;
76217;Laerm;65010;50.190;18.930;2023-04-24T17:11:25;44.97;34.76;61.91;;
76217;Laerm;65010;50.190;18.930;2023-04-24T17:14:32;46.12;34.69;62.45;;
76217;Laerm;65010;50.190;18.930;2023-04-24T17:17:39;35.97;34.22;47.87;;